createdAt,value
2018-07-21T00:00:26.246Z,0.00
2018-07-21T00:01:26.276Z,0.00
2018-07-21T00:02:26.356Z,0.00
2018-07-21T00:03:26.379Z,0.00
2018-07-21T00:04:26.434Z,0.00
2018-07-21T00:05:26.501Z,0.00
2018-07-21T00:06:26.527Z,0.00
2018-07-21T00:07:26.577Z,0.00
2018-07-21T00:08:26.632Z,0.00
2018-07-21T00:09:26.679Z,0.00
2018-07-21T00:10:26.758Z,0.00
2018-07-21T00:11:26.805Z,0.00
2018-07-21T00:12:26.834Z,0.00
2018-07-21T00:13:26.884Z,0.00
2018-07-21T00:14:26.939Z,0.00
2018-07-21T00:15:26.987Z,0.00
2018-07-21T00:16:27.062Z,0.00
2018-07-21T00:17:27.089Z,0.00
2018-07-21T00:18:27.139Z,0.00
2018-07-21T00:19:27.190Z,0.00
2018-07-21T00:20:27.244Z,0.00
2018-07-21T00:21:27.316Z,0.00
2018-07-21T00:22:27.368Z,0.00
2018-07-21T00:23:27.397Z,0.00
2018-07-21T00:24:27.446Z,0.00
2018-07-21T00:25:27.498Z,0.00
2018-07-21T00:26:27.547Z,0.00
2018-07-21T00:27:27.633Z,0.00
2018-07-21T00:28:27.648Z,0.00
2018-07-21T00:29:27.699Z,0.00
2018-07-21T00:30:27.750Z,0.00
2018-07-21T00:31:27.802Z,0.00
2018-07-21T00:32:27.895Z,0.00
2018-07-21T00:33:27.903Z,0.00
2018-07-21T00:34:27.959Z,0.00
2018-07-21T00:35:28.008Z,0.00
2018-07-21T00:36:28.056Z,0.00
2018-07-21T00:37:28.147Z,0.00
2018-07-21T00:38:28.157Z,0.00
2018-07-21T00:39:28.209Z,0.00
2018-07-21T00:40:28.260Z,0.00
2018-07-21T00:41:28.314Z,0.00
2018-07-21T00:42:28.407Z,0.00
2018-07-21T00:43:28.412Z,0.00
2018-07-21T00:44:28.466Z,0.00
2018-07-21T00:45:28.515Z,0.00
2018-07-21T00:46:28.572Z,0.00
2018-07-21T00:47:28.638Z,0.00
2018-07-21T00:48:28.687Z,0.00
2018-07-21T00:49:28.715Z,0.00
2018-07-21T00:50:28.769Z,0.00
2018-07-21T00:51:28.819Z,0.00
2018-07-21T00:52:28.910Z,0.00
2018-07-21T00:53:28.924Z,0.00
2018-07-21T00:54:28.968Z,0.00
2018-07-21T00:55:29.019Z,0.00
2018-07-21T00:56:29.070Z,0.00
2018-07-21T00:57:29.148Z,0.00
2018-07-21T00:58:29.172Z,0.00
2018-07-21T00:59:29.248Z,0.00
2018-07-21T01:00:29.273Z,0.00
2018-07-21T01:01:29.323Z,0.00
2018-07-21T01:02:29.373Z,0.00
2018-07-21T01:03:29.427Z,0.00
2018-07-21T01:04:29.506Z,0.00
2018-07-21T01:05:29.526Z,0.00
2018-07-21T01:06:29.577Z,0.00
2018-07-21T01:07:29.632Z,0.00
2018-07-21T01:08:29.675Z,0.00
2018-07-21T01:09:29.751Z,0.00
2018-07-21T01:10:29.778Z,0.00
2018-07-21T01:11:29.831Z,0.00
2018-07-21T01:12:29.879Z,0.00
2018-07-21T01:13:29.953Z,0.00
2018-07-21T01:14:29.984Z,0.00
2018-07-21T01:15:30.033Z,0.00
2018-07-21T01:16:30.081Z,0.00
2018-07-21T01:17:30.132Z,0.00
2018-07-21T01:18:30.217Z,0.00
2018-07-21T01:19:30.238Z,0.00
2018-07-21T01:20:30.283Z,0.00
2018-07-21T01:21:30.334Z,0.00
2018-07-21T01:22:30.387Z,0.00
2018-07-21T01:23:30.462Z,0.00
2018-07-21T01:24:30.487Z,0.00
2018-07-21T01:25:30.570Z,0.00
2018-07-21T01:26:30.595Z,0.00
2018-07-21T01:27:30.637Z,0.00
2018-07-21T01:28:30.693Z,0.00
2018-07-21T01:29:30.739Z,0.00
2018-07-21T01:30:30.815Z,0.00
2018-07-21T01:31:30.842Z,0.00
2018-07-21T01:32:30.890Z,0.00
2018-07-21T01:33:30.945Z,0.00
2018-07-21T01:34:31.016Z,0.00
2018-07-21T01:35:31.043Z,0.00
2018-07-21T01:36:31.091Z,0.00
2018-07-21T01:37:31.149Z,0.00
2018-07-21T01:38:31.195Z,0.00
2018-07-21T01:39:31.270Z,0.00
2018-07-21T01:40:31.299Z,0.00
2018-07-21T01:41:31.352Z,0.00
2018-07-21T01:42:31.423Z,0.00
2018-07-21T01:43:31.449Z,0.00
2018-07-21T01:44:31.501Z,0.00
2018-07-21T01:45:31.551Z,0.00
2018-07-21T01:46:31.599Z,0.00
2018-07-21T01:47:31.675Z,0.00
2018-07-21T01:48:31.701Z,0.00
2018-07-21T01:49:31.753Z,0.00
2018-07-21T01:50:31.800Z,0.00
2018-07-21T01:51:31.855Z,0.00
2018-07-21T01:52:31.925Z,0.00
2018-07-21T01:53:31.951Z,0.00
2018-07-21T01:54:32.004Z,0.00
2018-07-21T01:55:32.053Z,0.00
2018-07-21T01:56:32.103Z,0.00
2018-07-21T01:57:32.193Z,0.00
2018-07-21T01:58:32.204Z,0.00
2018-07-21T01:59:32.258Z,0.00
2018-07-21T02:00:32.305Z,0.00
2018-07-21T02:01:32.354Z,0.00
2018-07-21T02:02:32.430Z,0.00
2018-07-21T02:03:32.481Z,0.00
2018-07-21T02:04:32.507Z,0.00
2018-07-21T02:05:32.556Z,0.00
2018-07-21T02:06:32.609Z,0.00
2018-07-21T02:07:32.660Z,0.00
2018-07-21T02:08:32.734Z,0.00
2018-07-21T02:09:32.758Z,0.00
2018-07-21T02:10:32.814Z,0.00
2018-07-21T02:11:32.863Z,0.00
2018-07-21T02:12:32.952Z,0.00
2018-07-21T02:13:32.984Z,0.00
2018-07-21T02:14:33.012Z,0.00
2018-07-21T02:15:33.066Z,0.00
2018-07-21T02:16:33.110Z,0.00
2018-07-21T02:17:33.162Z,0.00
2018-07-21T02:18:33.239Z,0.00
2018-07-21T02:19:33.287Z,0.00
2018-07-21T02:20:33.313Z,0.00
2018-07-21T02:21:33.365Z,0.00
2018-07-21T02:22:33.424Z,0.00
2018-07-21T02:23:33.490Z,0.00
2018-07-21T02:24:33.556Z,0.00
2018-07-21T02:25:33.568Z,0.00
2018-07-21T02:26:33.639Z,0.00
2018-07-21T02:27:33.669Z,0.00
2018-07-21T02:28:33.717Z,0.00
2018-07-21T02:29:33.795Z,0.00
2018-07-21T02:30:33.842Z,0.00
2018-07-21T02:31:33.878Z,0.00
2018-07-21T02:32:33.923Z,0.00
2018-07-21T02:33:33.971Z,0.00
2018-07-21T02:34:34.025Z,0.00
2018-07-21T02:35:34.106Z,0.00
2018-07-21T02:36:34.122Z,0.00
2018-07-21T02:37:34.172Z,0.00
2018-07-21T02:38:34.224Z,0.00
2018-07-21T02:39:34.275Z,0.00
2018-07-21T02:40:34.367Z,0.00
2018-07-21T02:41:34.376Z,0.00
2018-07-21T02:42:34.427Z,0.00
2018-07-21T02:43:34.475Z,0.00
2018-07-21T02:44:34.527Z,0.00
2018-07-21T02:45:34.657Z,0.00
2018-07-21T02:46:34.656Z,0.00
2018-07-21T02:47:34.683Z,0.00
2018-07-21T02:48:34.731Z,0.00
2018-07-21T02:49:34.779Z,0.00
2018-07-21T02:50:34.835Z,0.00
2018-07-21T02:51:34.909Z,0.00
2018-07-21T02:52:34.935Z,0.00
2018-07-21T02:53:34.983Z,0.00
2018-07-21T02:54:35.033Z,0.00
2018-07-21T02:55:35.085Z,0.00
2018-07-21T02:56:35.158Z,0.00
2018-07-21T02:57:35.185Z,0.00
2018-07-21T02:58:35.243Z,0.00
2018-07-21T02:59:35.295Z,0.00
2018-07-21T03:00:35.339Z,0.00
2018-07-21T03:01:35.412Z,0.00
2018-07-21T03:02:35.439Z,0.00
2018-07-21T03:03:35.492Z,0.00
2018-07-21T03:04:35.539Z,0.00
2018-07-21T03:05:35.600Z,0.00
2018-07-21T03:06:35.664Z,0.00
2018-07-21T03:07:35.716Z,0.00
2018-07-21T03:08:35.743Z,0.00
2018-07-21T03:09:35.796Z,0.00
2018-07-21T03:10:35.851Z,0.00
2018-07-21T03:11:35.896Z,0.00
2018-07-21T03:12:35.978Z,0.00
2018-07-21T03:13:35.999Z,0.00
2018-07-21T03:14:36.047Z,0.00
2018-07-21T03:15:36.100Z,0.00
2018-07-21T03:16:36.148Z,0.00
2018-07-21T03:17:36.228Z,0.00
2018-07-21T03:18:36.272Z,0.00
2018-07-21T03:19:36.300Z,0.00
2018-07-21T03:20:36.350Z,0.00
2018-07-21T03:21:36.404Z,0.00
2018-07-21T03:22:36.479Z,0.00
2018-07-21T03:23:36.530Z,0.00
2018-07-21T03:24:36.557Z,0.00
2018-07-21T03:25:36.606Z,0.00
2018-07-21T03:26:36.656Z,0.00
2018-07-21T03:27:36.706Z,0.00
2018-07-21T03:28:36.792Z,0.00
2018-07-21T03:29:36.811Z,0.00
2018-07-21T03:30:36.867Z,0.00
2018-07-21T03:31:36.914Z,0.00
2018-07-21T03:32:36.961Z,0.00
2018-07-21T03:33:37.042Z,0.00
2018-07-21T03:34:37.060Z,0.00
2018-07-21T03:35:37.111Z,0.00
2018-07-21T03:36:37.166Z,0.00
2018-07-21T03:37:37.212Z,0.00
2018-07-21T03:38:37.286Z,0.00
2018-07-21T03:39:37.339Z,0.00
2018-07-21T03:40:37.456Z,0.00
2018-07-21T03:41:37.415Z,0.00
2018-07-21T03:42:37.465Z,0.00
2018-07-21T03:43:37.520Z,0.00
2018-07-21T03:44:37.595Z,0.00
2018-07-21T03:45:37.620Z,0.00
2018-07-21T03:46:37.671Z,0.00
2018-07-21T03:47:37.718Z,0.00
2018-07-21T03:48:37.768Z,0.00
2018-07-21T03:49:37.842Z,0.00
2018-07-21T03:50:37.895Z,0.00
2018-07-21T03:51:37.921Z,0.00
2018-07-21T03:52:37.969Z,0.00
2018-07-21T03:53:38.026Z,0.00
2018-07-21T03:54:38.153Z,0.00
2018-07-21T03:55:38.123Z,0.00
2018-07-21T03:56:38.171Z,5.63
2018-07-21T03:57:38.234Z,5.63
2018-07-21T03:58:38.274Z,5.63
2018-07-21T03:59:38.359Z,5.63
2018-07-21T04:00:38.387Z,5.63
2018-07-21T04:01:38.426Z,5.63
2018-07-21T04:02:38.479Z,5.63
2018-07-21T04:03:38.525Z,11.25
2018-07-21T04:04:38.617Z,11.25
2018-07-21T04:05:38.631Z,11.25
2018-07-21T04:06:38.680Z,11.25
2018-07-21T04:07:38.726Z,11.25
2018-07-21T04:08:38.777Z,11.25
2018-07-21T04:09:38.862Z,11.25
2018-07-21T04:10:38.879Z,11.25
2018-07-21T04:11:38.938Z,11.25
2018-07-21T04:12:38.980Z,11.25
2018-07-21T04:13:39.029Z,11.25
2018-07-21T04:14:39.110Z,11.25
2018-07-21T04:15:39.154Z,11.25
2018-07-21T04:16:39.180Z,11.25
2018-07-21T04:17:39.232Z,11.25
2018-07-21T04:18:39.291Z,11.25
2018-07-21T04:19:39.334Z,11.25
2018-07-21T04:20:39.410Z,11.25
2018-07-21T04:21:40.045Z,11.25
2018-07-21T04:22:39.484Z,11.25
2018-07-21T04:23:39.538Z,16.88
2018-07-21T04:24:39.584Z,11.25
2018-07-21T04:25:39.666Z,11.25
2018-07-21T04:26:39.685Z,11.25
2018-07-21T04:27:39.735Z,11.25
2018-07-21T04:28:39.786Z,11.25
2018-07-21T04:29:39.835Z,11.25
2018-07-21T04:30:39.909Z,11.25
2018-07-21T04:31:39.962Z,16.88
2018-07-21T04:32:39.986Z,16.88
2018-07-21T04:33:40.037Z,16.88
2018-07-21T04:34:40.089Z,16.88
2018-07-21T04:35:40.143Z,16.88
2018-07-21T04:36:40.212Z,16.88
2018-07-21T04:37:40.241Z,16.88
2018-07-21T04:38:40.291Z,16.88
2018-07-21T04:39:40.342Z,16.88
2018-07-21T04:40:40.388Z,16.88
2018-07-21T04:41:40.472Z,16.88
2018-07-21T04:42:40.495Z,16.88
2018-07-21T04:43:40.542Z,16.88
2018-07-21T04:44:40.595Z,16.88
2018-07-21T04:45:40.642Z,16.88
2018-07-21T04:46:40.716Z,16.88
2018-07-21T04:47:40.745Z,16.88
2018-07-21T04:48:40.792Z,16.88
2018-07-21T04:49:40.841Z,16.88
2018-07-21T04:50:40.895Z,16.88
2018-07-21T04:51:40.987Z,16.88
2018-07-21T04:52:40.994Z,16.88
2018-07-21T04:53:41.045Z,16.88
2018-07-21T04:54:41.102Z,16.88
2018-07-21T04:55:41.144Z,16.88
2018-07-21T04:56:41.229Z,16.88
2018-07-21T04:57:41.245Z,16.88
2018-07-21T04:58:41.297Z,16.88
2018-07-21T04:59:41.345Z,16.88
2018-07-21T05:00:41.464Z,16.88
2018-07-21T05:01:41.477Z,16.88
2018-07-21T05:02:41.501Z,16.88
2018-07-21T05:03:41.548Z,16.88
2018-07-21T05:04:41.596Z,16.88
2018-07-21T05:05:41.646Z,16.88
2018-07-21T05:06:41.746Z,16.88
2018-07-21T05:07:41.751Z,16.88
2018-07-21T05:08:41.796Z,16.88
2018-07-21T05:09:41.847Z,16.88
2018-07-21T05:10:41.898Z,16.88
2018-07-21T05:11:41.972Z,16.88
2018-07-21T05:12:41.998Z,16.88
2018-07-21T05:13:42.049Z,16.88
2018-07-21T05:14:42.100Z,16.88
2018-07-21T05:15:42.151Z,16.88
2018-07-21T05:16:42.228Z,16.88
2018-07-21T05:17:42.250Z,22.50
2018-07-21T05:18:42.301Z,22.50
2018-07-21T05:19:42.362Z,22.50
2018-07-21T05:20:42.400Z,22.50
2018-07-21T05:21:42.502Z,22.50
2018-07-21T05:22:42.503Z,28.13
2018-07-21T05:23:42.552Z,28.13
2018-07-21T05:24:42.603Z,33.75
2018-07-21T05:25:42.661Z,33.75
2018-07-21T05:26:42.741Z,33.75
2018-07-21T05:27:42.752Z,39.38
2018-07-21T05:28:43.262Z,39.38
2018-07-21T05:29:42.853Z,39.38
2018-07-21T05:30:42.905Z,45.00
2018-07-21T05:31:42.978Z,45.00
2018-07-21T05:32:43.026Z,45.00
2018-07-21T05:33:43.054Z,50.63
2018-07-21T05:34:43.104Z,50.63
2018-07-21T05:35:43.156Z,50.63
2018-07-21T05:36:43.203Z,50.63
2018-07-21T05:37:43.279Z,56.25
2018-07-21T05:38:43.310Z,56.25
2018-07-21T05:39:43.355Z,61.88
2018-07-21T05:40:43.405Z,61.88
2018-07-21T05:41:43.456Z,61.88
2018-07-21T05:42:43.702Z,61.88
2018-07-21T05:43:43.555Z,56.25
2018-07-21T05:44:43.608Z,56.25
2018-07-21T05:45:43.656Z,56.25
2018-07-21T05:46:43.707Z,61.88
2018-07-21T05:47:43.780Z,61.88
2018-07-21T05:48:43.814Z,61.88
2018-07-21T05:49:43.859Z,61.88
2018-07-21T05:50:43.908Z,61.88
2018-07-21T05:51:43.962Z,67.50
2018-07-21T05:52:44.045Z,67.50
2018-07-21T05:53:44.058Z,67.50
2018-07-21T05:54:44.112Z,67.50
2018-07-21T05:55:44.161Z,67.50
2018-07-21T05:56:44.212Z,67.50
2018-07-21T05:57:44.291Z,73.13
2018-07-21T05:58:44.312Z,73.13
2018-07-21T05:59:44.362Z,73.13
2018-07-21T06:00:44.413Z,67.50
2018-07-21T06:01:44.461Z,67.50
2018-07-21T06:02:44.600Z,73.13
2018-07-21T06:03:44.568Z,78.75
2018-07-21T06:04:44.613Z,78.75
2018-07-21T06:05:44.662Z,78.75
2018-07-21T06:06:44.722Z,84.38
2018-07-21T06:07:44.791Z,84.38
2018-07-21T06:08:44.886Z,84.38
2018-07-21T06:09:44.890Z,95.63
2018-07-21T06:10:44.916Z,101.25
2018-07-21T06:11:44.966Z,101.25
2018-07-21T06:12:45.017Z,101.25
2018-07-21T06:13:45.072Z,95.63
2018-07-21T06:14:45.153Z,90.00
2018-07-21T06:15:45.167Z,84.38
2018-07-21T06:16:45.216Z,78.75
2018-07-21T06:17:45.267Z,73.13
2018-07-21T06:18:45.449Z,67.50
2018-07-21T06:19:45.401Z,73.13
2018-07-21T06:20:45.425Z,78.75
2018-07-21T06:21:45.471Z,84.38
2018-07-21T06:22:45.519Z,95.63
2018-07-21T06:23:45.602Z,106.88
2018-07-21T06:24:45.649Z,118.13
2018-07-21T06:25:45.677Z,112.50
2018-07-21T06:26:45.725Z,106.88
2018-07-21T06:27:45.773Z,101.25
2018-07-21T06:28:45.825Z,95.63
2018-07-21T06:29:45.893Z,101.25
2018-07-21T06:30:45.927Z,106.88
2018-07-21T06:31:45.973Z,101.25
2018-07-21T06:32:46.069Z,95.63
2018-07-21T06:33:46.073Z,95.63
2018-07-21T06:34:46.149Z,90.00
2018-07-21T06:35:46.176Z,95.63
2018-07-21T06:36:46.228Z,95.63
2018-07-21T06:37:46.276Z,101.25
2018-07-21T06:38:46.327Z,112.50
2018-07-21T06:39:46.402Z,118.13
2018-07-21T06:40:46.429Z,118.13
2018-07-21T06:41:46.481Z,118.13
2018-07-21T06:42:46.532Z,112.50
2018-07-21T06:43:46.620Z,106.88
2018-07-21T06:44:46.653Z,101.25
2018-07-21T06:45:46.679Z,95.63
2018-07-21T06:46:46.733Z,95.63
2018-07-21T06:47:46.783Z,90.00
2018-07-21T06:48:46.832Z,84.38
2018-07-21T06:49:46.908Z,84.38
2018-07-21T06:50:46.933Z,84.38
2018-07-21T06:51:47.009Z,78.75
2018-07-21T06:52:47.033Z,78.75
2018-07-21T06:53:47.084Z,78.75
2018-07-21T06:54:47.135Z,84.38
2018-07-21T06:55:47.210Z,90.00
2018-07-21T06:56:47.239Z,95.63
2018-07-21T06:57:47.318Z,95.63
2018-07-21T06:58:47.338Z,90.00
2018-07-21T06:59:47.390Z,90.00
2018-07-21T07:00:47.442Z,90.00
2018-07-21T07:01:47.490Z,95.63
2018-07-21T07:02:47.567Z,95.63
2018-07-21T07:03:47.593Z,101.25
2018-07-21T07:04:47.645Z,106.88
2018-07-21T07:05:47.696Z,101.25
2018-07-21T07:06:47.778Z,95.63
2018-07-21T07:07:47.796Z,95.63
2018-07-21T07:08:47.844Z,90.00
2018-07-21T07:09:47.901Z,90.00
2018-07-21T07:10:47.952Z,90.00
2018-07-21T07:11:48.040Z,90.00
2018-07-21T07:12:48.049Z,84.38
2018-07-21T07:13:48.098Z,84.38
2018-07-21T07:14:48.153Z,84.38
2018-07-21T07:15:48.205Z,84.38
2018-07-21T07:16:48.277Z,90.00
2018-07-21T07:17:48.325Z,90.00
2018-07-21T07:18:48.362Z,90.00
2018-07-21T07:19:48.406Z,90.00
2018-07-21T07:20:48.454Z,90.00
2018-07-21T07:21:48.511Z,90.00
2018-07-21T07:22:48.579Z,84.38
2018-07-21T07:23:48.606Z,84.38
2018-07-21T07:24:48.656Z,90.00
2018-07-21T07:25:48.708Z,90.00
2018-07-21T07:26:48.759Z,95.63
2018-07-21T07:27:48.834Z,95.63
2018-07-21T07:28:48.861Z,90.00
2018-07-21T07:29:48.913Z,90.00
2018-07-21T07:30:48.962Z,90.00
2018-07-21T07:31:49.014Z,95.63
2018-07-21T07:32:49.087Z,101.25
2018-07-21T07:33:49.146Z,101.25
2018-07-21T07:34:49.163Z,106.88
2018-07-21T07:35:49.223Z,106.88
2018-07-21T07:36:49.270Z,101.25
2018-07-21T07:37:49.319Z,95.63
2018-07-21T07:38:49.398Z,90.00
2018-07-21T07:39:49.419Z,84.38
2018-07-21T07:40:49.470Z,84.38
2018-07-21T07:41:49.520Z,84.38
2018-07-21T07:42:49.573Z,90.00
2018-07-21T07:43:49.645Z,95.63
2018-07-21T07:44:49.677Z,112.50
2018-07-21T07:45:49.755Z,123.75
2018-07-21T07:46:49.777Z,135.00
2018-07-21T07:47:49.824Z,140.63
2018-07-21T07:48:49.875Z,140.63
2018-07-21T07:49:49.932Z,146.25
2018-07-21T07:50:50.010Z,146.25
2018-07-21T07:51:50.029Z,146.25
2018-07-21T07:52:50.080Z,135.00
2018-07-21T07:53:50.131Z,123.75
2018-07-21T07:54:50.207Z,123.75
2018-07-21T07:55:50.251Z,118.13
2018-07-21T07:56:50.310Z,118.13
2018-07-21T07:57:50.333Z,118.13
2018-07-21T07:58:50.386Z,118.13
2018-07-21T07:59:50.435Z,118.13
2018-07-21T08:00:50.486Z,123.75
2018-07-21T08:01:50.572Z,123.75
2018-07-21T08:02:50.596Z,135.00
2018-07-21T08:03:50.643Z,140.63
2018-07-21T08:04:50.693Z,146.25
2018-07-21T08:05:50.774Z,151.88
2018-07-21T08:06:50.817Z,151.88
2018-07-21T08:07:50.842Z,151.88
2018-07-21T08:08:50.892Z,140.63
2018-07-21T08:09:50.943Z,135.00
2018-07-21T08:10:50.995Z,129.38
2018-07-21T08:11:51.103Z,118.13
2018-07-21T08:12:51.095Z,106.88
2018-07-21T08:13:51.148Z,101.25
2018-07-21T08:14:51.198Z,95.63
2018-07-21T08:15:51.275Z,101.25
2018-07-21T08:16:51.300Z,106.88
2018-07-21T08:17:51.349Z,106.88
2018-07-21T08:18:51.404Z,106.88
2018-07-21T08:19:51.452Z,112.50
2018-07-21T08:20:51.532Z,118.13
2018-07-21T08:21:51.555Z,129.38
2018-07-21T08:22:51.613Z,151.88
2018-07-21T08:23:51.660Z,180.00
2018-07-21T08:24:51.709Z,213.75
2018-07-21T08:25:51.796Z,253.13
2018-07-21T08:26:51.808Z,275.63
2018-07-21T08:27:51.862Z,286.88
2018-07-21T08:28:51.916Z,275.63
2018-07-21T08:29:51.965Z,253.13
2018-07-21T08:30:52.040Z,230.63
2018-07-21T08:31:52.067Z,219.38
2018-07-21T08:32:52.117Z,219.38
2018-07-21T08:33:52.167Z,230.63
2018-07-21T08:34:52.244Z,253.13
2018-07-21T08:35:52.272Z,275.63
2018-07-21T08:36:52.349Z,298.13
2018-07-21T08:37:52.372Z,309.38
2018-07-21T08:38:52.424Z,309.38
2018-07-21T08:39:52.497Z,292.50
2018-07-21T08:40:52.527Z,270.00
2018-07-21T08:41:52.603Z,258.75
2018-07-21T08:42:52.632Z,264.38
2018-07-21T08:43:52.683Z,275.63
2018-07-21T08:44:52.741Z,286.88
2018-07-21T08:45:52.807Z,298.13
2018-07-21T08:46:52.862Z,309.38
2018-07-21T08:47:52.888Z,315.00
2018-07-21T08:48:52.942Z,326.25
2018-07-21T08:49:53.004Z,337.50
2018-07-21T08:50:53.043Z,343.13
2018-07-21T08:51:53.130Z,360.00
2018-07-21T08:52:53.145Z,388.13
2018-07-21T08:53:53.200Z,416.25
2018-07-21T08:54:53.251Z,433.13
2018-07-21T08:55:53.363Z,450.00
2018-07-21T08:56:55.324Z,461.25
2018-07-21T08:57:53.402Z,466.88
2018-07-21T08:58:53.454Z,472.50
2018-07-21T08:59:53.507Z,472.50
2018-07-21T09:00:53.560Z,478.13
2018-07-21T09:01:53.644Z,495.00
2018-07-21T09:02:53.666Z,511.88
2018-07-21T09:03:53.717Z,528.75
2018-07-21T09:04:53.768Z,523.13
2018-07-21T09:05:53.821Z,523.13
2018-07-21T09:06:53.894Z,523.13
2018-07-21T09:07:53.923Z,528.75
2018-07-21T09:08:54.004Z,517.50
2018-07-21T09:09:54.030Z,495.00
2018-07-21T09:10:54.079Z,478.13
2018-07-21T09:11:54.133Z,450.00
2018-07-21T09:12:54.183Z,433.13
2018-07-21T09:13:54.260Z,427.50
2018-07-21T09:14:54.295Z,421.88
2018-07-21T09:15:54.343Z,416.25
2018-07-21T09:16:54.392Z,410.63
2018-07-21T09:17:54.445Z,399.38
2018-07-21T09:18:54.525Z,399.38
2018-07-21T09:19:54.549Z,421.88
2018-07-21T09:20:54.602Z,450.00
2018-07-21T09:21:54.654Z,495.00
2018-07-21T09:22:54.716Z,534.38
2018-07-21T09:23:54.792Z,573.75
2018-07-21T09:24:54.810Z,573.75
2018-07-21T09:25:54.862Z,528.75
2018-07-21T09:26:54.926Z,495.00
2018-07-21T09:27:54.969Z,461.25
2018-07-21T09:28:55.054Z,450.00
2018-07-21T09:29:55.105Z,461.25
2018-07-21T09:30:55.127Z,495.00
2018-07-21T09:31:55.180Z,534.38
2018-07-21T09:32:55.230Z,568.13
2018-07-21T09:33:55.284Z,562.50
2018-07-21T09:34:55.376Z,506.25
2018-07-21T09:35:55.389Z,421.88
2018-07-21T09:36:55.713Z,382.50
2018-07-21T09:37:55.495Z,376.88
2018-07-21T09:38:55.546Z,393.75
2018-07-21T09:39:55.633Z,405.00
2018-07-21T09:40:55.726Z,438.75
2018-07-21T09:41:55.706Z,478.13
2018-07-21T09:42:55.760Z,511.88
2018-07-21T09:43:55.874Z,528.75
2018-07-21T09:44:56.019Z,534.38
2018-07-21T09:45:55.914Z,528.75
2018-07-21T09:46:55.978Z,517.50
2018-07-21T09:47:56.025Z,511.88
2018-07-21T09:48:56.073Z,511.88
2018-07-21T09:49:56.157Z,511.88
2018-07-21T09:50:56.182Z,511.88
2018-07-21T09:51:56.233Z,523.13
2018-07-21T09:52:56.286Z,540.00
2018-07-21T09:53:56.341Z,573.75
2018-07-21T09:54:56.422Z,596.25
2018-07-21T09:55:56.487Z,613.13
2018-07-21T09:56:56.497Z,624.38
2018-07-21T09:57:56.550Z,618.75
2018-07-21T09:58:58.344Z,613.13
2018-07-21T09:59:56.680Z,601.88
2018-07-21T10:00:56.707Z,607.50
2018-07-21T10:01:56.760Z,613.13
2018-07-21T10:02:56.838Z,607.50
2018-07-21T10:03:56.867Z,579.38
2018-07-21T10:04:56.921Z,545.63
2018-07-21T10:05:56.972Z,528.75
2018-07-21T10:06:57.035Z,556.88
2018-07-21T10:07:57.102Z,585.00
2018-07-21T10:08:58.851Z,601.88
2018-07-21T10:09:57.182Z,635.63
2018-07-21T10:10:57.269Z,680.63
2018-07-21T10:11:57.294Z,703.13
2018-07-21T10:12:57.345Z,708.75
2018-07-21T10:13:57.394Z,714.38
2018-07-21T10:14:57.451Z,708.75
2018-07-21T10:15:57.529Z,697.50
2018-07-21T10:16:57.557Z,731.25
2018-07-21T10:17:57.608Z,742.50
2018-07-21T10:18:57.697Z,748.13
2018-07-21T10:19:57.716Z,770.63
2018-07-21T10:20:57.774Z,787.50
2018-07-21T10:21:57.863Z,787.50
2018-07-21T10:22:57.877Z,787.50
2018-07-21T10:23:57.967Z,815.63
2018-07-21T10:24:57.987Z,855.00
2018-07-21T10:25:58.039Z,871.88
2018-07-21T10:26:58.090Z,916.88
2018-07-21T10:27:58.143Z,933.75
2018-07-21T10:28:58.223Z,973.13
2018-07-21T10:29:58.252Z,1006.88
2018-07-21T10:30:58.306Z,1063.13
2018-07-21T10:31:58.381Z,1170.00
2018-07-21T10:32:59.357Z,1192.50
2018-07-21T10:33:59.357Z,1029.38
2018-07-21T10:34:59.359Z,1006.88
2018-07-21T10:35:58.623Z,1001.25
2018-07-21T10:36:58.648Z,1040.63
2018-07-21T10:37:59.406Z,1108.13
2018-07-21T10:38:58.747Z,1141.88
2018-07-21T10:39:59.867Z,1265.63
2018-07-21T10:41:00.861Z,1440.00
2018-07-21T10:41:59.364Z,1158.75
2018-07-21T10:42:58.974Z,1108.13
2018-07-21T10:43:59.005Z,1226.25
2018-07-21T10:44:59.061Z,1170.00
2018-07-21T10:45:59.115Z,1175.63
2018-07-21T10:46:59.168Z,1147.50
2018-07-21T10:48:00.364Z,1361.25
2018-07-21T10:48:59.274Z,1282.50
2018-07-21T10:49:59.329Z,1102.50
2018-07-21T10:50:59.385Z,1085.63
2018-07-21T10:51:59.440Z,984.38
2018-07-21T10:52:59.515Z,928.13
2018-07-21T10:53:59.550Z,939.38
2018-07-21T10:54:59.605Z,1001.25
2018-07-21T10:56:00.367Z,1175.63
2018-07-21T10:56:59.712Z,1108.13
2018-07-21T10:58:00.368Z,1102.50
2018-07-21T10:58:59.824Z,1254.38
2018-07-21T10:59:59.878Z,2126.25
2018-07-21T11:00:59.929Z,1366.88
2018-07-21T11:01:59.990Z,1316.25
2018-07-21T11:03:00.077Z,1305.00
2018-07-21T11:04:00.096Z,1479.38
2018-07-21T11:05:00.149Z,1473.75
2018-07-21T11:06:00.208Z,1203.75
2018-07-21T11:07:00.262Z,1215.00
2018-07-21T11:08:00.924Z,1164.38
2018-07-21T11:09:00.394Z,1181.25
2018-07-21T11:10:00.425Z,1468.13
2018-07-21T11:11:00.482Z,1636.88
2018-07-21T11:12:00.533Z,1732.50
2018-07-21T11:13:00.613Z,1608.75
2018-07-21T11:14:00.668Z,1625.63
2018-07-21T11:15:00.695Z,1788.75
2018-07-21T11:16:00.751Z,2013.75
2018-07-21T11:17:00.809Z,2193.75
2018-07-21T11:18:00.864Z,2233.13
2018-07-21T11:19:00.947Z,2131.88
2018-07-21T11:20:00.971Z,1951.88
2018-07-21T11:21:01.025Z,1856.25
2018-07-21T11:22:01.090Z,1850.63
2018-07-21T11:23:01.134Z,2126.25
2018-07-21T11:24:01.221Z,2030.63
2018-07-21T11:25:01.243Z,2070.00
2018-07-21T11:26:01.305Z,1991.25
2018-07-21T11:27:01.358Z,2041.88
2018-07-21T11:28:01.410Z,2058.75
2018-07-21T11:29:01.489Z,2047.50
2018-07-21T11:30:01.557Z,2053.13
2018-07-21T11:31:01.575Z,2193.75
2018-07-21T11:32:01.631Z,2171.25
2018-07-21T11:33:01.691Z,2266.88
2018-07-21T11:34:01.746Z,2272.50
2018-07-21T11:35:01.827Z,2317.50
2018-07-21T11:36:02.182Z,2334.38
2018-07-21T11:37:01.913Z,2244.38
2018-07-21T11:38:01.964Z,2272.50
2018-07-21T11:39:02.051Z,2373.75
2018-07-21T11:40:02.080Z,2508.75
2018-07-21T11:41:02.136Z,2570.63
2018-07-21T11:42:02.195Z,2559.38
2018-07-21T11:43:02.249Z,2598.75
2018-07-21T11:44:02.335Z,2705.63
2018-07-21T11:45:02.360Z,2778.75
2018-07-21T11:46:02.415Z,2812.50
2018-07-21T11:47:02.473Z,2818.13
2018-07-21T11:48:02.532Z,2795.63
2018-07-21T11:49:02.622Z,2671.88
2018-07-21T11:50:02.645Z,2655.00
2018-07-21T11:51:02.699Z,2587.50
2018-07-21T11:52:02.755Z,2441.25
2018-07-21T11:53:02.812Z,2486.25
2018-07-21T11:54:02.900Z,2593.13
2018-07-21T11:55:02.929Z,2610.00
2018-07-21T11:56:02.984Z,2553.75
2018-07-21T11:57:03.040Z,2441.25
2018-07-21T11:58:03.100Z,2328.75
2018-07-21T11:59:03.201Z,2424.38
2018-07-21T12:00:03.219Z,2503.13
2018-07-21T12:01:03.296Z,2345.63
2018-07-21T12:02:03.328Z,2002.50
2018-07-21T12:03:03.386Z,2137.50
2018-07-21T12:04:03.443Z,1535.63
2018-07-21T12:05:03.523Z,1946.25
2018-07-21T12:06:03.559Z,2182.50
2018-07-21T12:07:03.645Z,2013.75
2018-07-21T12:08:03.675Z,1625.63
2018-07-21T12:09:03.743Z,1912.50
2018-07-21T12:10:03.790Z,928.13
2018-07-21T12:11:03.854Z,883.13
2018-07-21T12:12:03.932Z,1586.25
2018-07-21T12:13:04.032Z,725.63
2018-07-21T12:14:04.025Z,725.63
2018-07-21T12:15:04.080Z,703.13
2018-07-21T12:16:04.134Z,675.00
2018-07-21T12:17:04.215Z,624.38
2018-07-21T12:18:04.248Z,585.00
2018-07-21T12:19:04.303Z,540.00
2018-07-21T12:20:04.364Z,478.13
2018-07-21T12:32:16.796Z,365.63
2018-07-21T12:35:38.917Z,433.13
2018-07-21T12:36:38.897Z,461.25
2018-07-21T12:37:38.952Z,478.13
2018-07-21T12:38:39.025Z,500.63
2018-07-21T12:39:39.050Z,523.13
2018-07-21T12:40:39.104Z,556.88
2018-07-21T12:41:39.158Z,601.88
2018-07-21T12:42:39.210Z,652.50
2018-07-21T12:43:39.288Z,714.38
2018-07-21T12:44:39.322Z,883.13
2018-07-21T12:45:39.377Z,939.38
2018-07-21T12:46:39.431Z,1670.63
2018-07-21T12:47:39.479Z,1890.00
2018-07-21T12:48:39.557Z,2002.50
2018-07-21T12:49:39.624Z,2002.50
2018-07-21T12:50:39.639Z,2103.75
2018-07-21T12:51:39.694Z,1400.63
2018-07-21T12:52:39.746Z,1445.63
2018-07-21T12:53:39.802Z,1496.25
2018-07-21T12:54:39.885Z,1440.00
2018-07-21T12:55:39.912Z,1321.88
2018-07-21T12:56:39.965Z,1400.63
2018-07-21T12:57:40.030Z,1108.13
2018-07-21T12:58:40.078Z,1006.88
2018-07-21T12:59:40.160Z,1203.75
2018-07-21T13:00:40.186Z,1046.25